Time;durP1;ratioP1;P1;durP2;ratioP2;P2;SDS_P1;SDS_P2;PMS_P1;PMS_P2;Temp;Humidity;BMP_temperature;BMP_pressure;BME280_temperature;BME280_humidity;BME280_pressure;Samples;Min_cycle;Max_cycle;Signal;HPM_P1;HPM_P2
2023/05/29 00:01:20;;;;;;;15.07;6.70;;;;;;;10.82;100.00;93866.69;5032043;28;20064;-61
2023/05/29 00:03:47;;;;;;;12.23;5.97;;;;;;;10.84;100.00;93874.50;5048914;28;20063;-58
2023/05/29 00:06:14;;;;;;;11.20;5.40;;;;;;;10.71;100.00;93866.88;5048525;28;20041;-61
2023/05/29 00:08:41;;;;;;;11.18;5.50;;;;;;;10.65;100.00;93863.06;5031044;28;20135;-59
2023/05/29 00:11:08;;;;;;;12.73;5.30;;;;;;;10.37;100.00;93870.53;5041037;28;20535;-59
2023/05/29 00:13:34;;;;;;;11.70;5.80;;;;;;;10.39;100.00;93864.66;5044940;28;20072;-58
2023/05/29 00:16:03;;;;;;;18.02;10.30;;;;;;;10.39;100.00;93867.41;5014778;28;20114;-60
2023/05/29 00:18:30;;;;;;;17.48;9.80;;;;;;;10.37;100.00;93864.28;5052159;28;20052;-58
2023/05/29 00:20:57;;;;;;;13.63;7.63;;;;;;;10.35;100.00;93872.16;5030903;28;20064;-62
2023/05/29 00:23:24;;;;;;;10.53;6.33;;;;;;;10.35;100.00;93869.41;5032002;28;20057;-58
2023/05/29 00:25:51;;;;;;;11.75;6.03;;;;;;;10.31;100.00;93863.22;5059984;28;20040;-60
2023/05/29 00:28:18;;;;;;;11.55;5.50;;;;;;;10.32;100.00;93868.28;5053855;28;20339;-61
2023/05/29 00:30:45;;;;;;;11.57;5.80;;;;;;;10.27;100.00;93863.22;5039159;28;20051;-59
2023/05/29 00:33:11;;;;;;;10.73;5.68;;;;;;;10.25;100.00;93867.59;5049993;28;20385;-59
2023/05/29 00:35:38;;;;;;;11.17;5.57;;;;;;;10.17;100.00;93869.66;5025069;28;20037;-62
2023/05/29 00:38:05;;;;;;;11.43;5.47;;;;;;;10.13;100.00;93869.69;5028650;28;20059;-60
2023/05/29 00:40:32;;;;;;;11.20;6.05;;;;;;;10.11;100.00;93868.56;5029004;28;20037;-59
2023/05/29 00:42:58;;;;;;;10.95;5.45;;;;;;;10.10;100.00;93867.78;5063267;28;20040;-59
2023/05/29 00:45:26;;;;;;;11.25;5.90;;;;;;;10.09;100.00;93866.22;5047850;28;20037;-59
2023/05/29 00:47:53;;;;;;;12.67;5.87;;;;;;;10.08;100.00;93861.94;5067719;28;20045;-62
2023/05/29 00:50:21;;;;;;;10.70;5.32;;;;;;;10.04;100.00;93861.22;5047116;28;20090;-60
2023/05/29 00:52:48;;;;;;;11.20;5.57;;;;;;;10.00;100.00;93864.00;5042361;28;20417;-59
2023/05/29 00:55:15;;;;;;;10.02;5.70;;;;;;;9.96;100.00;93866.03;5060124;28;20048;-59
2023/05/29 00:57:42;;;;;;;12.15;5.93;;;;;;;9.94;100.00;93862.91;5042315;28;20043;-59
2023/05/29 01:00:13;;;;;;;12.17;5.87;;;;;;;9.92;100.00;93868.03;5048075;28;20047;-58
2023/05/29 01:02:44;;;;;;;20.05;11.10;;;;;;;9.89;100.00;93862.59;5066397;28;21625;-64
2023/05/29 01:05:12;;;;;;;33.83;15.35;;;;;;;9.85;100.00;93864.63;5044298;28;20037;-59
2023/05/29 01:07:39;;;;;;;20.48;10.18;;;;;;;9.84;100.00;93863.84;5057690;28;20393;-59
2023/05/29 01:10:07;;;;;;;13.07;7.05;;;;;;;9.78;100.00;93869.00;5033082;28;20127;-59
2023/05/29 01:12:54;;;;;;;11.63;5.90;;;;;;;9.81;100.00;93870.13;5061440;28;20052;-59
2023/05/29 01:15:36;;;;;;;11.43;5.30;;;;;;;9.70;100.00;93874.97;5058221;28;20064;-59
2023/05/29 01:18:41;;;;;;;11.00;5.18;;;;;;;9.65;100.00;93872.69;5038572;28;20105;-59
2023/05/29 01:21:42;;;;;;;11.75;5.40;;;;;;;9.60;100.00;93879.41;5046527;28;20060;-64
2023/05/29 01:24:33;;;;;;;12.18;5.28;;;;;;;9.54;100.00;93879.09;5053641;28;20827;-60
2023/05/29 01:27:05;;;;;;;10.57;5.40;;;;;;;9.45;100.00;93872.53;5051966;28;20036;-59
2023/05/29 01:29:34;;;;;;;10.27;5.00;;;;;;;9.40;100.00;93865.56;5049541;28;20048;-59
2023/05/29 01:32:01;;;;;;;9.80;5.00;;;;;;;9.37;100.00;93869.88;5060901;28;20048;-59
2023/05/29 01:34:28;;;;;;;11.48;4.90;;;;;;;9.35;100.00;93866.00;5054300;28;20037;-58
2023/05/29 01:36:55;;;;;;;10.63;5.57;;;;;;;9.32;100.00;93866.84;5037239;28;20041;-59
2023/05/29 01:39:23;;;;;;;10.57;5.07;;;;;;;9.29;100.00;93864.91;5050655;28;20040;-59
2023/05/29 01:41:50;;;;;;;13.48;5.60;;;;;;;9.29;100.00;93868.41;5055579;28;20041;-59
2023/05/29 01:44:18;;;;;;;10.52;5.50;;;;;;;9.27;100.00;93867.25;5034715;28;20037;-61
2023/05/29 01:46:45;;;;;;;12.20;5.60;;;;;;;9.26;100.00;93877.44;5062888;28;20040;-62
2023/05/29 01:49:13;;;;;;;9.75;5.32;;;;;;;9.24;100.00;93876.31;5052361;28;20033;-59
2023/05/29 01:51:41;;;;;;;10.10;5.20;;;;;;;9.23;100.00;93877.47;5050292;28;20439;-62
2023/05/29 01:54:08;;;;;;;12.90;5.68;;;;;;;9.13;100.00;93881.88;5046869;28;20076;-58
2023/05/29 01:56:36;;;;;;;11.13;5.45;;;;;;;9.11;100.00;93882.28;5034455;28;20045;-59
2023/05/29 01:59:04;;;;;;;11.10;5.40;;;;;;;9.08;100.00;93874.13;5051073;28;20033;-59
2023/05/29 02:01:31;;;;;;;10.88;5.80;;;;;;;9.04;100.00;93879.63;5044479;28;20083;-60
2023/05/29 02:03:58;;;;;;;11.30;5.57;;;;;;;8.99;100.00;93886.34;5062969;28;20068;-64
2023/05/29 02:06:25;;;;;;;11.30;5.30;;;;;;;9.00;100.00;93887.88;5026097;28;20051;-59
2023/05/29 02:08:52;;;;;;;11.13;5.25;;;;;;;8.97;100.00;93887.91;5033160;28;20045;-64
2023/05/29 02:11:20;;;;;;;10.93;5.47;;;;;;;8.93;100.00;93882.47;5041094;28;20111;-62
2023/05/29 02:13:46;;;;;;;10.90;5.15;;;;;;;8.83;100.00;93872.38;5060415;28;20349;-58
2023/05/29 02:16:13;;;;;;;9.60;5.13;;;;;;;8.85;100.00;93878.22;5045441;28;20474;-59
2023/05/29 02:18:41;;;;;;;10.27;5.65;;;;;;;8.85;100.00;93882.94;5051528;28;20851;-61
2023/05/29 02:21:08;;;;;;;10.55;5.32;;;;;;;8.74;100.00;93874.84;5029753;28;20048;-61
2023/05/29 02:23:35;;;;;;;10.68;5.63;;;;;;;8.71;100.00;93884.63;5068246;28;20796;-62
2023/05/29 02:26:02;;;;;;;9.70;5.50;;;;;;;8.64;100.00;93881.19;5041681;28;20094;-59
2023/05/29 02:28:28;;;;;;;12.90;5.70;;;;;;;8.42;100.00;93881.34;5049866;28;20056;-63
2023/05/29 02:30:55;;;;;;;11.32;5.72;;;;;;;8.26;100.00;93883.78;5052926;28;20519;-58
2023/05/29 02:33:22;;;;;;;9.85;5.32;;;;;;;8.16;100.00;93883.44;5060397;28;20093;-59
2023/05/29 02:35:49;;;;;;;10.85;5.20;;;;;;;8.20;100.00;93888.88;5040940;28;20060;-60
2023/05/29 02:38:16;;;;;;;10.20;5.18;;;;;;;8.20;100.00;93883.41;5047451;28;20343;-59
2023/05/29 02:40:43;;;;;;;11.23;5.27;;;;;;;8.24;100.00;93881.44;5039145;28;20041;-64
2023/05/29 02:43:12;;;;;;;10.23;4.85;;;;;;;8.26;100.00;93879.09;5043179;28;20037;-60
2023/05/29 02:45:39;;;;;;;10.55;5.10;;;;;;;8.32;100.00;93874.75;5029636;28;21342;-60
2023/05/29 02:48:06;;;;;;;12.75;5.70;;;;;;;8.34;100.00;93869.66;5022699;28;20034;-59
2023/05/29 02:50:33;;;;;;;10.85;5.53;;;;;;;8.33;100.00;93873.56;5029374;28;20041;-59
2023/05/29 02:53:00;;;;;;;11.07;5.10;;;;;;;8.29;100.00;93872.81;5029782;28;20044;-59
2023/05/29 02:55:26;;;;;;;11.15;5.82;;;;;;;8.24;100.00;93864.25;5039258;28;20033;-64
2023/05/29 02:57:55;;;;;;;26.75;13.82;;;;;;;8.16;100.00;93872.50;5024212;28;20033;-60
2023/05/29 03:00:21;;;;;;;28.92;10.93;;;;;;;8.16;100.00;93877.19;5031641;28;20048;-62
2023/05/29 03:02:48;;;;;;;12.73;6.90;;;;;;;8.13;100.00;93878.00;5034643;28;20068;-58
2023/05/29 03:05:16;;;;;;;11.87;6.00;;;;;;;8.17;100.00;93873.31;5033751;28;20070;-56
2023/05/29 03:07:43;;;;;;;11.95;6.13;;;;;;;8.20;100.00;93878.72;5057656;28;20048;-59
2023/05/29 03:10:10;;;;;;;11.25;6.20;;;;;;;8.16;100.00;93879.94;5036017;28;20051;-58
2023/05/29 03:12:39;;;;;;;11.60;5.65;;;;;;;8.07;100.00;93882.31;5047913;28;20045;-58
2023/05/29 03:15:06;;;;;;;9.77;5.28;;;;;;;7.90;100.00;93876.56;5047414;28;20051;-58
2023/05/29 03:17:33;;;;;;;11.53;5.63;;;;;;;7.69;100.00;93888.41;5045254;28;20397;-59
2023/05/29 03:20:00;;;;;;;11.25;5.60;;;;;;;7.71;100.00;93879.81;5036064;28;20045;-58
2023/05/29 03:22:26;;;;;;;10.70;5.50;;;;;;;7.69;100.00;93876.72;5067176;28;20040;-57
2023/05/29 03:24:53;;;;;;;12.43;5.70;;;;;;;7.73;100.00;93874.72;5061043;28;20486;-58
2023/05/29 03:27:20;;;;;;;11.48;5.47;;;;;;;7.74;100.00;93877.03;5034408;28;20080;-58
2023/05/29 03:29:47;;;;;;;10.67;5.43;;;;;;;7.77;100.00;93879.00;5049598;28;20386;-61
2023/05/29 03:32:13;;;;;;;11.73;5.72;;;;;;;7.86;100.00;93881.28;5062363;28;20052;-58
2023/05/29 03:34:40;;;;;;;12.13;5.10;;;;;;;7.91;100.00;93877.38;5045783;28;20813;-57
2023/05/29 03:37:07;;;;;;;9.93;5.47;;;;;;;7.90;100.00;93881.28;5046463;28;20036;-58
2023/05/29 03:39:34;;;;;;;10.60;5.50;;;;;;;7.91;100.00;93872.69;5057500;28;20044;-59
2023/05/29 03:42:02;;;;;;;10.60;5.67;;;;;;;7.94;100.00;93876.56;5028969;28;20053;-58
2023/05/29 03:44:29;;;;;;;11.88;5.78;;;;;;;7.90;100.00;93876.56;5041531;28;20045;-63
2023/05/29 03:46:56;;;;;;;12.13;6.10;;;;;;;7.97;100.00;93879.28;5036331;28;20043;-60
2023/05/29 03:49:23;;;;;;;11.27;5.80;;;;;;;8.03;100.00;93871.44;5048507;28;20028;-59
2023/05/29 03:51:50;;;;;;;12.23;6.10;;;;;;;8.09;100.00;93877.22;5038136;28;20049;-57
2023/05/29 03:54:17;;;;;;;11.97;5.67;;;;;;;8.02;100.00;93872.59;5038589;28;20045;-58
2023/05/29 03:56:44;;;;;;;11.65;5.53;;;;;;;8.03;100.00;93871.44;5041394;28;20138;-59
2023/05/29 03:59:10;;;;;;;10.48;5.60;;;;;;;8.11;100.00;93878.41;5056560;28;20033;-57
2023/05/29 04:01:37;;;;;;;10.50;5.57;;;;;;;8.18;100.00;93877.56;5045909;28;20040;-59
2023/05/29 04:04:04;;;;;;;12.95;6.38;;;;;;;8.18;100.00;93872.13;5035799;28;20036;-60
2023/05/29 04:06:31;;;;;;;11.80;6.27;;;;;;;8.25;100.00;93877.53;5059093;28;20051;-58
2023/05/29 04:08:58;;;;;;;11.57;5.93;;;;;;;8.28;100.00;93881.41;5031482;28;20044;-57
2023/05/29 04:11:25;;;;;;;12.25;5.65;;;;;;;8.31;100.00;93884.13;5037344;28;20068;-61
2023/05/29 04:13:52;;;;;;;24.60;14.63;;;;;;;8.31;100.00;93886.88;5044871;28;20049;-59
2023/05/29 04:16:19;;;;;;;16.52;8.98;;;;;;;8.36;100.00;93889.16;5046707;28;20408;-63
2023/05/29 04:18:45;;;;;;;13.97;7.10;;;;;;;8.31;100.00;93900.53;5033856;28;20037;-59
2023/05/29 04:21:12;;;;;;;12.25;6.18;;;;;;;8.36;100.00;93900.09;5028819;28;20037;-57
2023/05/29 04:23:39;;;;;;;12.80;6.20;;;;;;;8.44;100.00;93900.09;5048711;28;20535;-57
2023/05/29 04:26:06;;;;;;;12.32;5.95;;;;;;;8.51;100.00;93903.56;5036405;28;20060;-60
2023/05/29 04:28:33;;;;;;;11.82;5.90;;;;;;;8.58;100.00;93905.44;5036539;28;20044;-58
2023/05/29 04:31:00;;;;;;;14.33;6.13;;;;;;;8.74;100.00;93907.66;5055537;28;20144;-61
2023/05/29 04:33:29;;;;;;;10.82;5.63;;;;;;;8.90;100.00;93909.88;5062085;28;20048;-59
2023/05/29 04:35:56;;;;;;;12.45;5.80;;;;;;;9.04;100.00;93914.44;5054833;28;20033;-59
2023/05/29 04:38:24;;;;;;;12.63;6.18;;;;;;;9.13;100.00;93907.28;5041985;28;20039;-58
2023/05/29 04:40:57;;;;;;;16.63;9.45;;;;;;;9.19;100.00;93911.16;5045787;28;20400;-58
2023/05/29 04:43:26;;;;;;;12.37;6.60;;;;;;;9.27;100.00;93909.09;5054965;28;20493;-60
2023/05/29 04:45:53;;;;;;;15.75;6.38;;;;;;;9.35;100.00;93910.59;5028381;28;20040;-58
2023/05/29 04:48:20;;;;;;;13.35;6.28;;;;;;;9.46;100.00;93912.47;5058576;28;20049;-63
2023/05/29 04:50:48;;;;;;;11.23;6.20;;;;;;;9.15;100.00;93918.59;5031809;28;20041;-60
2023/05/29 04:53:15;;;;;;;10.23;5.93;;;;;;;9.16;100.00;93919.41;5039368;28;20072;-62
2023/05/29 04:55:42;;;;;;;12.47;6.20;;;;;;;9.15;100.00;93935.03;5058671;28;20043;-58
2023/05/29 04:58:08;;;;;;;10.90;5.95;;;;;;;9.35;100.00;93926.25;5041918;28;20494;-58
2023/05/29 05:00:35;;;;;;;11.55;6.05;;;;;;;9.43;100.00;93926.97;5031135;28;20046;-63
2023/05/29 05:03:02;;;;;;;11.35;6.00;;;;;;;9.70;100.00;93929.78;5031743;28;20048;-60
2023/05/29 05:05:29;;;;;;;10.88;5.78;;;;;;;9.93;100.00;93932.63;5031703;28;20051;-59
2023/05/29 05:07:56;;;;;;;11.33;6.27;;;;;;;10.08;100.00;93927.75;5061119;28;20036;-59
2023/05/29 05:10:22;;;;;;;11.23;5.82;;;;;;;10.02;100.00;93920.38;5036795;28;20043;-60
2023/05/29 05:12:49;;;;;;;12.70;6.40;;;;;;;10.16;100.00;93928.41;5043150;28;20044;-63
2023/05/29 05:15:16;;;;;;;11.88;6.25;;;;;;;10.15;100.00;93929.63;5053534;28;20037;-61
2023/05/29 05:17:43;;;;;;;10.40;6.15;;;;;;;9.83;100.00;93932.78;5044320;28;20037;-65
2023/05/29 05:20:11;;;;;;;12.57;6.47;;;;;;;9.98;100.00;93925.94;5043581;28;20064;-60
2023/05/29 05:22:38;;;;;;;12.75;6.38;;;;;;;10.13;100.00;93927.28;5030904;28;20036;-60
2023/05/29 05:25:05;;;;;;;13.85;6.35;;;;;;;11.98;100.00;93921.88;5037707;28;20485;-66
2023/05/29 05:27:33;;;;;;;11.05;6.25;;;;;;;14.44;86.11;93928.34;5033229;28;20052;-61
2023/05/29 05:30:00;;;;;;;12.07;7.07;;;;;;;16.50;75.00;93918.28;5062778;28;20044;-58
2023/05/29 05:32:27;;;;;;;10.97;6.63;;;;;;;17.62;66.98;93912.63;5048926;28;20126;-60
2023/05/29 05:34:54;;;;;;;10.57;6.78;;;;;;;17.25;64.74;93920.91;5042149;28;20039;-57
2023/05/29 05:37:23;;;;;;;11.25;6.30;;;;;;;17.22;65.40;93918.28;5046015;28;20036;-61
2023/05/29 05:39:53;;;;;;;10.20;6.35;;;;;;;16.92;66.43;93915.09;5043806;28;20045;-57
2023/05/29 05:42:20;;;;;;;9.90;6.32;;;;;;;18.29;62.78;93924.03;5060215;28;20056;-60
2023/05/29 05:44:47;;;;;;;11.67;6.67;;;;;;;19.35;58.56;93923.06;5047113;28;20473;-57
2023/05/29 05:47:14;;;;;;;10.15;6.32;;;;;;;20.30;54.09;93917.13;5066947;28;20040;-57
2023/05/29 05:49:43;;;;;;;10.07;6.43;;;;;;;21.21;49.20;93914.59;5057175;28;20053;-60
2023/05/29 05:52:10;;;;;;;9.98;6.32;;;;;;;21.97;48.19;93925.00;5049458;28;20036;-57
2023/05/29 05:54:37;;;;;;;10.73;7.50;;;;;;;21.31;47.27;93913.22;5034697;28;20043;-57
2023/05/29 05:57:03;;;;;;;12.20;7.53;;;;;;;21.47;46.38;93925.13;5042650;28;20114;-60
2023/05/29 05:59:30;;;;;;;9.43;6.20;;;;;;;23.32;44.28;93925.53;5029593;28;20072;-58
2023/05/29 06:01:57;;;;;;;9.88;7.00;;;;;;;24.75;40.93;93917.22;5044973;28;20047;-61
2023/05/29 06:04:24;;;;;;;9.85;6.80;;;;;;;23.25;44.27;93926.00;5058867;28;20484;-58
2023/05/29 06:06:51;;;;;;;9.93;6.40;;;;;;;23.32;41.75;93917.91;5050412;28;20036;-57
2023/05/29 06:09:19;;;;;;;11.00;6.90;;;;;;;25.00;37.81;93912.66;5023689;28;20039;-58
2023/05/29 06:11:48;;;;;;;9.38;6.82;;;;;;;23.82;40.66;93919.47;5050450;28;20036;-58
2023/05/29 06:14:15;;;;;;;10.25;6.70;;;;;;;22.88;42.87;93916.28;5066182;28;20043;-58
2023/05/29 06:16:42;;;;;;;9.52;6.63;;;;;;;24.68;39.54;93912.88;5055140;28;20113;-62
2023/05/29 06:19:10;;;;;;;9.38;6.45;;;;;;;24.94;38.88;93912.63;5049710;28;20041;-64
2023/05/29 06:21:37;;;;;;;10.03;6.80;;;;;;;25.46;38.50;93912.13;5054461;28;20041;-58
2023/05/29 06:24:04;;;;;;;11.15;7.35;;;;;;;25.87;37.11;93910.72;5060490;28;20039;-59
2023/05/29 06:26:30;;;;;;;10.07;6.70;;;;;;;25.68;38.06;93911.31;5045997;28;20492;-63
2023/05/29 06:28:57;;;;;;;10.32;7.22;;;;;;;25.93;37.60;93907.94;5039202;28;20051;-59
2023/05/29 06:31:24;;;;;;;10.27;7.18;;;;;;;26.53;35.98;93910.97;5033211;28;20044;-59
2023/05/29 06:33:51;;;;;;;10.50;7.33;;;;;;;26.25;36.37;93911.13;5037877;28;20109;-63
2023/05/29 06:36:18;;;;;;;10.80;6.95;;;;;;;26.10;37.49;93917.06;5042604;28;20041;-59
2023/05/29 06:38:48;;;;;;;12.73;7.57;;;;;;;23.58;41.26;93921.88;5047014;28;20113;-59
2023/05/29 06:41:15;;;;;;;9.65;6.38;;;;;;;26.57;37.98;93919.13;5057796;28;20047;-59
2023/05/29 06:43:42;;;;;;;12.60;7.35;;;;;;;26.59;37.54;93922.22;5051215;28;20465;-59
2023/05/29 06:46:10;;;;;;;10.10;7.37;;;;;;;24.84;39.41;93919.78;5037738;28;20047;-65
2023/05/29 06:48:37;;;;;;;10.82;7.15;;;;;;;25.46;39.74;93914.94;5044048;28;20051;-59
2023/05/29 06:51:11;;;;;;;10.32;7.10;;;;;;;27.82;35.57;93920.44;5051395;28;20045;-59
2023/05/29 06:53:39;;;;;;;10.05;7.22;;;;;;;28.79;32.91;93914.38;5062537;28;20071;-59
2023/05/29 06:56:06;;;;;;;10.15;6.60;;;;;;;28.70;34.25;93912.72;5049832;28;20519;-60
2023/05/29 06:58:33;;;;;;;9.03;6.53;;;;;;;31.04;30.74;93904.50;5033251;28;20392;-62
2023/05/29 07:01:00;;;;;;;8.98;6.28;;;;;;;30.33;31.46;93903.50;5036781;28;20045;-63
2023/05/29 07:03:33;;;;;;;9.40;6.90;;;;;;;29.97;31.75;93914.50;5047166;28;20037;-60
2023/05/29 07:06:00;;;;;;;10.10;6.47;;;;;;;32.77;28.03;93922.38;5044655;28;20060;-65
2023/05/29 07:08:27;;;;;;;9.45;7.30;;;;;;;27.72;33.92;93927.72;5038986;28;20029;-63
2023/05/29 07:10:54;;;;;;;9.63;6.50;;;;;;;32.35;28.29;93919.72;5049610;28;20455;-61
2023/05/29 07:13:21;;;;;;;8.98;6.15;;;;;;;32.88;28.07;93918.44;5054080;28;20053;-60
2023/05/29 07:15:48;;;;;;;9.48;6.03;;;;;;;33.90;26.08;93920.88;5062109;28;20060;-59
2023/05/29 07:18:15;;;;;;;8.40;5.85;;;;;;;33.45;26.36;93916.69;5047046;28;20045;-60
2023/05/29 07:20:42;;;;;;;11.13;6.00;;;;;;;32.42;28.42;93923.94;5049757;28;20036;-66
2023/05/29 07:23:08;;;;;;;11.03;6.17;;;;;;;34.34;25.96;93918.53;5038580;28;20040;-62
2023/05/29 07:25:35;;;;;;;8.35;5.70;;;;;;;33.09;24.69;93926.09;5029093;28;20044;-61
2023/05/29 07:28:02;;;;;;;9.20;5.60;;;;;;;33.18;24.78;93919.84;5029612;28;20048;-61
2023/05/29 07:30:46;;;;;;;7.75;5.20;;;;;;;32.11;26.76;93926.56;5040862;28;20608;-63
2023/05/29 07:33:13;;;;;;;8.20;5.40;;;;;;;30.90;25.35;93928.53;5049224;28;20049;-61
2023/05/29 07:35:40;;;;;;;7.53;5.23;;;;;;;27.50;28.21;93926.63;5052549;28;21330;-64
2023/05/29 07:38:07;;;;;;;8.15;6.20;;;;;;;32.84;23.72;93927.34;5069095;28;20040;-60
2023/05/29 07:40:33;;;;;;;7.07;5.30;;;;;;;32.04;24.63;93924.47;5053163;28;20055;-61
2023/05/29 07:43:00;;;;;;;10.05;4.97;;;;;;;26.90;28.90;93927.38;5061339;28;20272;-59
2023/05/29 07:45:27;;;;;;;9.35;4.97;;;;;;;27.63;27.20;93923.19;5048318;28;20051;-58
2023/05/29 07:47:54;;;;;;;7.40;5.00;;;;;;;26.37;29.52;93934.34;5073477;28;20371;-66
2023/05/29 07:50:21;;;;;;;7.55;4.68;;;;;;;29.91;26.43;93919.50;5055140;28;20045;-60
2023/05/29 07:52:48;;;;;;;9.30;4.90;;;;;;;29.94;24.32;93919.19;5046318;28;20055;-60
2023/05/29 07:55:15;;;;;;;6.60;4.80;;;;;;;30.29;24.48;93913.59;5048498;28;20500;-60
2023/05/29 07:57:42;;;;;;;7.68;4.75;;;;;;;30.30;23.62;93915.91;5053305;28;20066;-61
2023/05/29 08:00:13;;;;;;;7.43;4.73;;;;;;;31.28;22.72;93913.22;5040640;28;20389;-58
2023/05/29 08:02:40;;;;;;;7.22;5.10;;;;;;;30.62;23.16;93921.38;5061901;28;20738;-58
2023/05/29 08:05:07;;;;;;;6.82;4.53;;;;;;;30.64;23.28;93921.59;5068064;28;20135;-58
2023/05/29 08:07:36;;;;;;;7.53;5.05;;;;;;;27.27;27.12;93928.16;5047708;28;20057;-62
2023/05/29 08:10:05;;;;;;;7.40;4.60;;;;;;;29.52;23.66;93920.94;5057139;28;20040;-59
2023/05/29 08:12:34;;;;;;;7.43;4.83;;;;;;;27.57;26.86;93916.84;5047601;28;20045;-59
2023/05/29 08:15:04;;;;;;;7.65;4.63;;;;;;;28.97;24.82;93926.94;5071023;28;20397;-58
2023/05/29 08:17:30;;;;;;;7.20;4.97;;;;;;;28.74;24.66;93918.81;5058029;28;20037;-59
2023/05/29 08:19:57;;;;;;;8.98;4.82;;;;;;;29.07;24.37;93911.13;5066053;28;20036;-62
2023/05/29 08:22:29;;;;;;;7.55;5.13;;;;;;;25.75;28.31;93940.16;5053943;28;20040;-66
2023/05/29 08:24:56;;;;;;;8.17;5.10;;;;;;;25.69;27.72;93943.72;5053649;28;20435;-61
2023/05/29 08:27:23;;;;;;;10.38;4.75;;;;;;;27.69;26.18;93937.25;5047340;28;20067;-61
2023/05/29 08:29:49;;;;;;;7.25;4.72;;;;;;;28.51;26.29;93929.66;5061335;28;20055;-60
2023/05/29 08:32:16;;;;;;;7.05;4.60;;;;;;;27.08;26.70;93934.44;5060984;28;20374;-67
2023/05/29 08:34:45;;;;;;;6.88;4.65;;;;;;;30.06;23.81;93923.31;5048418;28;20033;-60
2023/05/29 08:37:12;;;;;;;6.77;4.50;;;;;;;32.48;21.01;93913.16;5045946;28;20384;-61
2023/05/29 08:39:39;;;;;;;9.25;4.93;;;;;;;30.13;23.55;93919.06;5046895;28;20047;-60
2023/05/29 08:42:25;;;;;;;9.27;5.22;;;;;;;30.24;22.76;93918.84;5047348;28;20039;-61
2023/05/29 08:44:55;;;;;;;8.73;4.90;;;;;;;27.06;25.53;93928.56;5047304;28;20047;-61
2023/05/29 08:47:26;;;;;;;8.50;4.80;;;;;;;28.43;24.94;93942.81;5065564;28;20066;-58
2023/05/29 08:49:54;;;;;;;9.07;5.07;;;;;;;28.74;22.96;93929.34;5057182;28;20051;-59
2023/05/29 08:52:27;;;;;;;19.00;15.95;;;;;;;28.01;22.50;93933.81;5047081;28;20037;-58
2023/05/29 08:54:54;;;;;;;8.18;5.03;;;;;;;27.58;25.19;93931.72;5047947;28;20044;-59
2023/05/29 08:57:21;;;;;;;7.53;5.28;;;;;;;27.85;24.95;93947.56;5046769;28;20052;-59
2023/05/29 08:59:51;;;;;;;7.47;5.13;;;;;;;28.02;25.49;93938.19;5056157;28;20047;-65
2023/05/29 09:02:19;;;;;;;7.07;5.07;;;;;;;26.61;27.39;93940.09;5063021;28;20041;-60
2023/05/29 09:04:48;;;;;;;8.15;5.10;;;;;;;27.92;25.76;93945.50;5065058;28;20470;-63
2023/05/29 09:07:18;;;;;;;7.97;5.10;;;;;;;27.72;26.29;93941.81;5047682;28;20045;-57
2023/05/29 09:09:48;;;;;;;6.72;4.90;;;;;;;30.37;23.81;93934.31;5048262;28;20045;-63
2023/05/29 09:12:16;;;;;;;7.70;4.82;;;;;;;29.82;24.12;93934.81;5047662;28;20035;-59
2023/05/29 09:14:47;;;;;;;7.10;4.60;;;;;;;32.01;21.98;93934.09;5071550;28;20037;-59
2023/05/29 09:17:15;;;;;;;9.52;5.35;;;;;;;27.47;26.72;93944.63;5034056;28;20039;-59
2023/05/29 09:19:42;;;;;;;7.03;4.90;;;;;;;30.48;23.33;93933.31;5050746;28;21004;-59
2023/05/29 09:22:14;;;;;;;6.22;4.63;;;;;;;31.99;21.72;93931.03;5051373;28;20045;-63
2023/05/29 09:24:45;;;;;;;7.82;4.80;;;;;;;29.83;23.63;93933.53;5050530;28;20623;-62
2023/05/29 09:27:12;;;;;;;6.60;4.60;;;;;;;29.42;24.63;93938.34;5051732;28;20041;-61
2023/05/29 09:29:44;;;;;;;8.27;5.03;;;;;;;30.75;23.03;93936.84;5051219;28;20045;-64
2023/05/29 09:32:14;;;;;;;7.07;4.93;;;;;;;29.13;24.47;93944.97;5051880;28;20466;-60
2023/05/29 09:34:42;;;;;;;7.13;4.97;;;;;;;32.88;20.72;93932.66;5050495;28;20704;-60
2023/05/29 09:37:10;;;;;;;9.63;4.75;;;;;;;31.69;21.89;93935.16;5053328;28;20151;-60
2023/05/29 09:39:51;;;;;;;8.77;5.30;;;;;;;26.79;26.76;93941.53;5050988;28;20063;-63
2023/05/29 09:42:18;;;;;;;7.63;4.80;;;;;;;30.38;23.16;93925.25;5063602;28;20033;-60
2023/05/29 09:44:48;;;;;;;7.47;4.90;;;;;;;30.34;22.47;93930.47;5033729;28;20055;-60
2023/05/29 09:47:17;;;;;;;9.05;4.95;;;;;;;29.63;22.93;93938.47;5067156;28;20050;-59
2023/05/29 09:49:46;;;;;;;7.22;4.80;;;;;;;31.90;21.07;93932.28;5060879;28;20045;-59
2023/05/29 09:52:16;;;;;;;7.37;4.73;;;;;;;29.44;23.93;93930.06;5051238;28;20469;-59
2023/05/29 09:54:45;;;;;;;7.43;4.85;;;;;;;29.07;24.27;93937.31;5060586;28;21484;-61
2023/05/29 09:57:16;;;;;;;8.07;4.95;;;;;;;29.54;23.47;93938.91;5053568;28;20037;-59
2023/05/29 09:59:51;;;;;;;9.13;4.78;;;;;;;28.19;23.58;93949.28;5050294;28;20041;-60
2023/05/29 10:02:19;;;;;;;8.98;4.85;;;;;;;25.67;27.00;93951.91;5065902;28;20129;-60
2023/05/29 10:04:45;;;;;;;7.27;4.80;;;;;;;25.64;27.12;93955.00;5065191;28;20051;-65
2023/05/29 10:07:25;;;;;;;8.07;5.20;;;;;;;24.93;28.48;93950.41;5051284;28;20051;-59
2023/05/29 10:09:55;;;;;;;7.57;4.68;;;;;;;30.13;22.95;93932.44;5049760;28;20045;-60
2023/05/29 10:12:22;;;;;;;7.82;4.68;;;;;;;32.87;20.66;93933.97;5050242;28;20233;-61
2023/05/29 10:14:50;;;;;;;6.65;4.75;;;;;;;32.70;20.49;93923.13;5067643;28;20033;-64
2023/05/29 10:17:23;;;;;;;7.60;4.90;;;;;;;27.65;25.07;93942.41;5050318;28;20135;-62
2023/05/29 10:19:52;;;;;;;7.55;4.70;;;;;;;26.18;27.14;93951.81;5050613;28;20032;-64
2023/05/29 10:22:21;;;;;;;7.95;4.93;;;;;;;25.72;26.74;93944.78;5049785;28;20033;-64
2023/05/29 10:24:50;;;;;;;7.10;4.82;;;;;;;29.25;23.81;93935.78;5049870;28;20037;-63
2023/05/29 10:27:18;;;;;;;7.53;4.75;;;;;;;29.49;22.75;93931.28;5061811;28;20067;-59
2023/05/29 10:29:54;;;;;;;9.23;5.17;;;;;;;27.58;25.72;93943.72;5051266;28;20037;-59
2023/05/29 10:32:32;;;;;;;7.13;4.93;;;;;;;25.70;27.63;93934.03;5049964;28;20041;-59
2023/05/29 10:35:12;;;;;;;7.45;5.10;;;;;;;27.22;26.51;93948.63;5050372;28;20048;-59
2023/05/29 10:37:48;;;;;;;7.05;5.13;;;;;;;28.78;25.03;93935.47;5062536;28;20392;-58
2023/05/29 10:40:16;;;;;;;8.07;5.65;;;;;;;29.70;22.95;93937.09;5052071;28;20067;-65
2023/05/29 10:42:45;;;;;;;7.53;4.80;;;;;;;25.87;27.48;93961.34;5049778;28;20071;-59
2023/05/29 10:45:51;;;;;;;7.30;4.85;;;;;;;27.81;25.69;93944.28;5062729;28;20059;-59
2023/05/29 10:48:17;;;;;;;7.78;4.70;;;;;;;26.78;26.25;93951.25;5007862;28;20046;-61
2023/05/29 10:50:47;;;;;;;9.30;4.90;;;;;;;25.30;27.81;93944.56;5048498;28;20037;-59
2023/05/29 10:53:16;;;;;;;8.43;4.95;;;;;;;26.74;27.03;93933.88;5049832;28;20049;-58
2023/05/29 10:55:45;;;;;;;8.60;5.10;;;;;;;24.84;28.46;93926.16;5049393;28;20059;-59
2023/05/29 10:58:18;;;;;;;7.45;4.72;;;;;;;24.18;29.69;93930.34;5063104;28;20049;-59
2023/05/29 11:00:46;;;;;;;7.60;4.90;;;;;;;25.23;28.77;93933.88;5049115;28;20037;-59
2023/05/29 11:03:25;;;;;;;7.47;4.93;;;;;;;24.98;29.06;93929.25;5052158;28;20041;-62
2023/05/29 11:06:10;;;;;;;7.30;4.65;;;;;;;25.00;28.82;93933.06;5040324;28;20919;-60
2023/05/29 11:08:52;;;;;;;8.57;4.93;;;;;;;24.67;28.62;93928.16;5049274;28;20473;-58
2023/05/29 11:11:29;;;;;;;7.93;4.82;;;;;;;24.61;29.08;93928.19;5048825;28;20036;-58
2023/05/29 11:14:00;;;;;;;7.40;4.70;;;;;;;24.67;29.06;93926.16;5061473;28;20426;-64
2023/05/29 11:16:29;;;;;;;8.40;4.45;;;;;;;24.38;28.12;93924.53;5058162;28;20071;-60
2023/05/29 11:18:57;;;;;;;9.20;3.95;;;;;;;24.39;27.32;93914.84;5060159;28;20045;-59
2023/05/29 11:21:44;;;;;;;8.53;4.70;;;;;;;22.12;29.91;93928.47;5058328;28;20044;-67
2023/05/29 11:24:24;;;;;;;7.18;3.75;;;;;;;23.42;24.99;93926.91;5049640;28;20047;-59
2023/05/29 11:26:53;;;;;;;5.70;3.70;;;;;;;22.81;25.42;93932.75;5048297;28;21793;-59
2023/05/29 11:29:27;;;;;;;7.03;3.80;;;;;;;22.70;26.20;93930.63;5048663;28;20043;-61
2023/05/29 11:32:02;;;;;;;6.30;4.10;;;;;;;22.74;28.39;93931.19;5061948;28;20033;-59
2023/05/29 11:34:30;;;;;;;7.00;3.77;;;;;;;23.77;28.30;93925.03;5030563;28;20053;-59